Lemont Furnace, Pennsylvania
Current Conditions -  °F | °C
As of 12:53 AM on Sunday 26 Oct 2014 (Local Time) from KMGW Reporting Station
Clear Clear  
Wind Chill: 61°   Ceiling: Unl
Heat Index: 61°   Visibility: 10mi
Dew Point: 46°   Wind: 8mph
Humidity: 58%   Direction: 280°W
Pressure: 29.84"   Gusts: NA
Location:  39.91°N, 79.67°W
Report Text: KMGW 260453Z AUTO 28007KT 10SM CLR 16/08 A2984 RMK AO2 SLP100 T01610078 402000056 TSNO
Loading
Personal Weather Stations






























Interactive Weather Map
Tropical Storm Tracking
New forecast layout! Learn more

10-Day Weather Forecast

Advertisements
Track Severe Weather on mobile